sensor_id;sensor_type;location;lat;lon;timestamp;temperature;humidity
26745;DHT22;14342;50.960;13.880;2023-03-12T00:00:32;3.40;99.90
26745;DHT22;14342;50.960;13.880;2023-03-12T00:01:34;3.40;99.90
26745;DHT22;14342;50.960;13.880;2023-03-12T00:02:34;3.40;99.90
26745;DHT22;14342;50.960;13.880;2023-03-12T00:03:37;3.40;99.90
26745;DHT22;14342;50.960;13.880;2023-03-12T00:04:39;3.40;99.90
26745;DHT22;14342;50.960;13.880;2023-03-12T00:05:41;3.40;99.90
26745;DHT22;14342;50.960;13.880;2023-03-12T00:06:42;3.40;99.90
26745;DHT22;14342;50.960;13.880;2023-03-12T00:07:43;3.40;99.90
26745;DHT22;14342;50.960;13.880;2023-03-12T00:08:44;3.10;99.90
26745;DHT22;14342;50.960;13.880;2023-03-12T00:09:45;3.20;99.90
26745;DHT22;14342;50.960;13.880;2023-03-12T00:10:46;3.10;99.90
26745;DHT22;14342;50.960;13.880;2023-03-12T00:11:47;3.20;99.90
26745;DHT22;14342;50.960;13.880;2023-03-12T00:12:48;3.20;99.90
26745;DHT22;14342;50.960;13.880;2023-03-12T00:13:49;3.20;99.90
26745;DHT22;14342;50.960;13.880;2023-03-12T00:14:50;3.20;99.90
26745;DHT22;14342;50.960;13.880;2023-03-12T00:15:51;3.20;99.90
26745;DHT22;14342;50.960;13.880;2023-03-12T00:16:52;3.20;99.90
26745;DHT22;14342;50.960;13.880;2023-03-12T00:17:55;3.30;99.90
26745;DHT22;14342;50.960;13.880;2023-03-12T00:18:56;3.30;99.90
26745;DHT22;14342;50.960;13.880;2023-03-12T00:19:58;3.30;99.90
26745;DHT22;14342;50.960;13.880;2023-03-12T00:20:58;3.30;99.90
26745;DHT22;14342;50.960;13.880;2023-03-12T00:22:00;3.20;99.90
26745;DHT22;14342;50.960;13.880;2023-03-12T00:23:00;3.40;99.90
26745;DHT22;14342;50.960;13.880;2023-03-12T00:24:02;3.10;99.90
26745;DHT22;14342;50.960;13.880;2023-03-12T00:25:04;3.20;99.90
26745;DHT22;14342;50.960;13.880;2023-03-12T00:26:07;3.10;99.90
26745;DHT22;14342;50.960;13.880;2023-03-12T00:27:08;3.10;99.90
26745;DHT22;14342;50.960;13.880;2023-03-12T00:28:09;3.10;99.90
26745;DHT22;14342;50.960;13.880;2023-03-12T00:29:10;3.10;99.90
26745;DHT22;14342;50.960;13.880;2023-03-12T00:30:11;3.10;99.90
26745;DHT22;14342;50.960;13.880;2023-03-12T00:31:13;3.00;99.90
26745;DHT22;14342;50.960;13.880;2023-03-12T00:32:14;3.00;99.90
26745;DHT22;14342;50.960;13.880;2023-03-12T00:33:15;3.00;99.90
26745;DHT22;14342;50.960;13.880;2023-03-12T00:34:18;3.00;99.90
26745;DHT22;14342;50.960;13.880;2023-03-12T00:35:18;3.00;99.90
26745;DHT22;14342;50.960;13.880;2023-03-12T00:36:20;2.90;99.90
26745;DHT22;14342;50.960;13.880;2023-03-12T00:37:24;2.80;99.90
26745;DHT22;14342;50.960;13.880;2023-03-12T00:38:26;2.80;99.90
26745;DHT22;14342;50.960;13.880;2023-03-12T00:39:26;2.90;99.90
26745;DHT22;14342;50.960;13.880;2023-03-12T00:40:28;2.80;99.90
26745;DHT22;14342;50.960;13.880;2023-03-12T00:41:28;2.60;99.90
26745;DHT22;14342;50.960;13.880;2023-03-12T00:42:30;2.50;99.90
26745;DHT22;14342;50.960;13.880;2023-03-12T00:43:31;2.50;99.90
26745;DHT22;14342;50.960;13.880;2023-03-12T00:44:32;2.50;99.90
26745;DHT22;14342;50.960;13.880;2023-03-12T00:45:33;2.50;99.90
26745;DHT22;14342;50.960;13.880;2023-03-12T00:46:34;2.50;99.90
26745;DHT22;14342;50.960;13.880;2023-03-12T00:47:35;2.50;99.90
26745;DHT22;14342;50.960;13.880;2023-03-12T00:48:36;2.50;99.90
26745;DHT22;14342;50.960;13.880;2023-03-12T00:49:38;2.40;99.90
26745;DHT22;14342;50.960;13.880;2023-03-12T00:50:40;2.40;99.90
26745;DHT22;14342;50.960;13.880;2023-03-12T00:51:41;2.30;99.90
26745;DHT22;14342;50.960;13.880;2023-03-12T00:52:42;2.30;99.90
26745;DHT22;14342;50.960;13.880;2023-03-12T00:53:43;2.20;99.90
26745;DHT22;14342;50.960;13.880;2023-03-12T00:54:44;2.50;99.90
26745;DHT22;14342;50.960;13.880;2023-03-12T00:55:45;2.50;99.90
26745;DHT22;14342;50.960;13.880;2023-03-12T00:56:46;2.70;99.90
26745;DHT22;14342;50.960;13.880;2023-03-12T00:57:47;2.30;99.90
26745;DHT22;14342;50.960;13.880;2023-03-12T00:58:49;2.40;99.90
26745;DHT22;14342;50.960;13.880;2023-03-12T00:59:49;2.50;99.90
26745;DHT22;14342;50.960;13.880;2023-03-12T01:00:51;2.60;99.90
26745;DHT22;14342;50.960;13.880;2023-03-12T01:01:51;2.60;99.90
26745;DHT22;14342;50.960;13.880;2023-03-12T01:02:53;2.60;99.90
26745;DHT22;14342;50.960;13.880;2023-03-12T01:03:54;2.60;99.90
26745;DHT22;14342;50.960;13.880;2023-03-12T01:04:58;2.80;99.90
26745;DHT22;14342;50.960;13.880;2023-03-12T01:05:59;2.80;99.90
26745;DHT22;14342;50.960;13.880;2023-03-12T01:07:00;2.90;99.90
26745;DHT22;14342;50.960;13.880;2023-03-12T01:08:01;2.90;99.90
26745;DHT22;14342;50.960;13.880;2023-03-12T01:09:02;3.00;99.90
26745;DHT22;14342;50.960;13.880;2023-03-12T01:10:04;2.90;99.90
26745;DHT22;14342;50.960;13.880;2023-03-12T01:11:07;2.90;99.90
26745;DHT22;14342;50.960;13.880;2023-03-12T01:12:11;2.60;99.90
26745;DHT22;14342;50.960;13.880;2023-03-12T01:13:13;2.50;99.90
26745;DHT22;14342;50.960;13.880;2023-03-12T01:14:13;2.60;99.90
26745;DHT22;14342;50.960;13.880;2023-03-12T01:15:16;2.70;99.90
26745;DHT22;14342;50.960;13.880;2023-03-12T01:16:16;3.00;99.90
26745;DHT22;14342;50.960;13.880;2023-03-12T01:17:18;2.80;99.90
26745;DHT22;14342;50.960;13.880;2023-03-12T01:18:18;2.90;99.90
26745;DHT22;14342;50.960;13.880;2023-03-12T01:19:20;2.90;99.90
26745;DHT22;14342;50.960;13.880;2023-03-12T01:20:22;2.70;99.90
26745;DHT22;14342;50.960;13.880;2023-03-12T01:21:24;2.60;99.90
26745;DHT22;14342;50.960;13.880;2023-03-12T01:22:24;2.60;99.90
26745;DHT22;14342;50.960;13.880;2023-03-12T01:23:26;2.60;99.90
26745;DHT22;14342;50.960;13.880;2023-03-12T01:24:26;2.50;99.90
26745;DHT22;14342;50.960;13.880;2023-03-12T01:25:28;2.50;99.90
26745;DHT22;14342;50.960;13.880;2023-03-12T01:26:28;2.40;99.90
26745;DHT22;14342;50.960;13.880;2023-03-12T01:27:30;2.40;99.90
26745;DHT22;14342;50.960;13.880;2023-03-12T01:28:30;2.40;99.90
26745;DHT22;14342;50.960;13.880;2023-03-12T01:29:32;2.50;99.90
26745;DHT22;14342;50.960;13.880;2023-03-12T01:30:32;2.40;99.90
26745;DHT22;14342;50.960;13.880;2023-03-12T01:31:34;2.10;99.90
26745;DHT22;14342;50.960;13.880;2023-03-12T01:32:34;2.20;99.90
26745;DHT22;14342;50.960;13.880;2023-03-12T01:33:36;2.30;99.90
26745;DHT22;14342;50.960;13.880;2023-03-12T01:34:37;2.20;99.90
26745;DHT22;14342;50.960;13.880;2023-03-12T01:35:40;2.00;99.90
26745;DHT22;14342;50.960;13.880;2023-03-12T01:36:40;2.10;99.90
26745;DHT22;14342;50.960;13.880;2023-03-12T01:37:42;2.20;99.90
26745;DHT22;14342;50.960;13.880;2023-03-12T01:38:42;2.10;99.90
26745;DHT22;14342;50.960;13.880;2023-03-12T01:39:44;2.20;99.90
26745;DHT22;14342;50.960;13.880;2023-03-12T01:40:44;2.30;99.90
26745;DHT22;14342;50.960;13.880;2023-03-12T01:41:46;2.30;99.90
26745;DHT22;14342;50.960;13.880;2023-03-12T01:42:50;2.30;99.90
26745;DHT22;14342;50.960;13.880;2023-03-12T01:43:52;2.30;99.90
26745;DHT22;14342;50.960;13.880;2023-03-12T01:44:53;2.20;99.90
26745;DHT22;14342;50.960;13.880;2023-03-12T01:45:58;2.10;99.90
26745;DHT22;14342;50.960;13.880;2023-03-12T01:47:01;2.00;99.90
26745;DHT22;14342;50.960;13.880;2023-03-12T01:48:02;2.00;99.90
26745;DHT22;14342;50.960;13.880;2023-03-12T01:49:04;2.00;99.90
26745;DHT22;14342;50.960;13.880;2023-03-12T01:50:08;2.20;99.90
26745;DHT22;14342;50.960;13.880;2023-03-12T01:51:10;2.10;99.90
26745;DHT22;14342;50.960;13.880;2023-03-12T01:52:13;2.10;99.90
26745;DHT22;14342;50.960;13.880;2023-03-12T01:53:14;2.10;99.90
26745;DHT22;14342;50.960;13.880;2023-03-12T01:54:17;2.00;99.90
26745;DHT22;14342;50.960;13.880;2023-03-12T01:55:20;2.00;99.90
26745;DHT22;14342;50.960;13.880;2023-03-12T01:56:21;1.90;99.90
26745;DHT22;14342;50.960;13.880;2023-03-12T01:57:26;1.60;99.90
26745;DHT22;14342;50.960;13.880;2023-03-12T01:58:28;1.60;99.90
26745;DHT22;14342;50.960;13.880;2023-03-12T01:59:32;1.30;99.90
26745;DHT22;14342;50.960;13.880;2023-03-12T02:00:35;1.10;99.90
26745;DHT22;14342;50.960;13.880;2023-03-12T02:01:36;1.00;99.90
26745;DHT22;14342;50.960;13.880;2023-03-12T02:02:38;0.90;99.90
26745;DHT22;14342;50.960;13.880;2023-03-12T02:03:39;0.80;99.90
26745;DHT22;14342;50.960;13.880;2023-03-12T02:04:41;0.80;99.90
26745;DHT22;14342;50.960;13.880;2023-03-12T02:05:43;0.80;99.90
26745;DHT22;14342;50.960;13.880;2023-03-12T02:06:49;0.80;99.90
26745;DHT22;14342;50.960;13.880;2023-03-12T02:07:50;0.90;99.90
26745;DHT22;14342;50.960;13.880;2023-03-12T02:08:52;0.90;99.90
26745;DHT22;14342;50.960;13.880;2023-03-12T02:09:52;0.80;99.90
26745;DHT22;14342;50.960;13.880;2023-03-12T02:10:54;0.70;99.90
26745;DHT22;14342;50.960;13.880;2023-03-12T02:11:54;1.20;99.90
26745;DHT22;14342;50.960;13.880;2023-03-12T02:12:56;1.10;99.90
26745;DHT22;14342;50.960;13.880;2023-03-12T02:13:56;1.10;99.90
26745;DHT22;14342;50.960;13.880;2023-03-12T02:14:58;1.00;99.90
26745;DHT22;14342;50.960;13.880;2023-03-12T02:15:58;1.00;99.90
26745;DHT22;14342;50.960;13.880;2023-03-12T02:17:01;0.90;99.90
26745;DHT22;14342;50.960;13.880;2023-03-12T02:18:01;0.90;99.90
26745;DHT22;14342;50.960;13.880;2023-03-12T02:19:03;0.80;99.90
26745;DHT22;14342;50.960;13.880;2023-03-12T02:20:08;0.70;99.90
26745;DHT22;14342;50.960;13.880;2023-03-12T02:21:16;0.70;99.90
26745;DHT22;14342;50.960;13.880;2023-03-12T02:22:19;0.80;99.90
26745;DHT22;14342;50.960;13.880;2023-03-12T02:23:24;0.90;99.90
26745;DHT22;14342;50.960;13.880;2023-03-12T02:24:27;1.00;99.90
26745;DHT22;14342;50.960;13.880;2023-03-12T02:25:33;1.00;99.90
26745;DHT22;14342;50.960;13.880;2023-03-12T02:26:35;1.00;99.90
26745;DHT22;14342;50.960;13.880;2023-03-12T02:27:38;1.00;99.90
26745;DHT22;14342;50.960;13.880;2023-03-12T02:28:39;1.00;99.90
26745;DHT22;14342;50.960;13.880;2023-03-12T02:29:43;0.90;99.90
26745;DHT22;14342;50.960;13.880;2023-03-12T02:30:45;1.00;99.90
26745;DHT22;14342;50.960;13.880;2023-03-12T02:31:47;1.40;99.90
26745;DHT22;14342;50.960;13.880;2023-03-12T02:32:49;1.10;99.90
26745;DHT22;14342;50.960;13.880;2023-03-12T02:33:52;1.10;99.90
26745;DHT22;14342;50.960;13.880;2023-03-12T02:34:52;0.90;99.90
26745;DHT22;14342;50.960;13.880;2023-03-12T02:35:54;0.80;99.90
26745;DHT22;14342;50.960;13.880;2023-03-12T02:36:55;0.70;99.90
26745;DHT22;14342;50.960;13.880;2023-03-12T02:37:56;0.80;99.90
26745;DHT22;14342;50.960;13.880;2023-03-12T02:38:57;0.70;99.90
26745;DHT22;14342;50.960;13.880;2023-03-12T02:39:59;0.80;99.90
26745;DHT22;14342;50.960;13.880;2023-03-12T02:41:04;0.50;99.90
26745;DHT22;14342;50.960;13.880;2023-03-12T02:42:07;0.40;99.90
26745;DHT22;14342;50.960;13.880;2023-03-12T02:43:08;0.30;99.90
26745;DHT22;14342;50.960;13.880;2023-03-12T02:44:10;0.40;99.90
26745;DHT22;14342;50.960;13.880;2023-03-12T02:45:12;0.40;99.90
26745;DHT22;14342;50.960;13.880;2023-03-12T02:46:13;0.40;99.90
26745;DHT22;14342;50.960;13.880;2023-03-12T02:47:14;0.40;99.90
26745;DHT22;14342;50.960;13.880;2023-03-12T02:48:15;0.50;99.90
26745;DHT22;14342;50.960;13.880;2023-03-12T02:49:17;0.40;99.90
26745;DHT22;14342;50.960;13.880;2023-03-12T02:50:19;0.10;99.90
26745;DHT22;14342;50.960;13.880;2023-03-12T02:51:19;0.40;99.90
26745;DHT22;14342;50.960;13.880;2023-03-12T02:52:21;0.40;99.90
26745;DHT22;14342;50.960;13.880;2023-03-12T02:53:21;0.50;99.90
26745;DHT22;14342;50.960;13.880;2023-03-12T02:54:23;0.30;99.90
26745;DHT22;14342;50.960;13.880;2023-03-12T02:55:24;0.40;99.90
26745;DHT22;14342;50.960;13.880;2023-03-12T02:56:27;0.50;99.90
26745;DHT22;14342;50.960;13.880;2023-03-12T02:57:28;0.70;99.90
26745;DHT22;14342;50.960;13.880;2023-03-12T02:58:29;0.70;99.90
26745;DHT22;14342;50.960;13.880;2023-03-12T02:59:30;0.60;99.90
26745;DHT22;14342;50.960;13.880;2023-03-12T03:00:32;0.60;99.90
26745;DHT22;14342;50.960;13.880;2023-03-12T03:01:32;0.70;99.90
26745;DHT22;14342;50.960;13.880;2023-03-12T03:02:34;0.80;99.90
26745;DHT22;14342;50.960;13.880;2023-03-12T03:03:34;0.80;99.90
26745;DHT22;14342;50.960;13.880;2023-03-12T03:04:36;0.70;99.90
26745;DHT22;14342;50.960;13.880;2023-03-12T03:05:36;0.80;99.90
26745;DHT22;14342;50.960;13.880;2023-03-12T03:06:38;0.70;99.90
26745;DHT22;14342;50.960;13.880;2023-03-12T03:07:40;0.70;99.90
26745;DHT22;14342;50.960;13.880;2023-03-12T03:08:41;0.70;99.90
26745;DHT22;14342;50.960;13.880;2023-03-12T03:09:42;0.80;99.90
26745;DHT22;14342;50.960;13.880;2023-03-12T03:10:44;0.80;99.90
26745;DHT22;14342;50.960;13.880;2023-03-12T03:11:46;0.90;99.90
26745;DHT22;14342;50.960;13.880;2023-03-12T03:12:47;0.90;99.90
26745;DHT22;14342;50.960;13.880;2023-03-12T03:13:49;1.00;99.90
26745;DHT22;14342;50.960;13.880;2023-03-12T03:14:50;1.00;99.90
26745;DHT22;14342;50.960;13.880;2023-03-12T03:15:51;1.10;99.90
26745;DHT22;14342;50.960;13.880;2023-03-12T03:16:53;1.20;99.90
26745;DHT22;14342;50.960;13.880;2023-03-12T03:17:53;1.10;99.90
26745;DHT22;14342;50.960;13.880;2023-03-12T03:18:55;1.30;99.90
26745;DHT22;14342;50.960;13.880;2023-03-12T03:19:55;1.30;99.90
26745;DHT22;14342;50.960;13.880;2023-03-12T03:20:57;1.20;99.90
26745;DHT22;14342;50.960;13.880;2023-03-12T03:21:58;1.40;99.90
26745;DHT22;14342;50.960;13.880;2023-03-12T03:22:59;1.50;99.90
26745;DHT22;14342;50.960;13.880;2023-03-12T03:24:00;1.80;99.90
26745;DHT22;14342;50.960;13.880;2023-03-12T03:25:01;2.00;99.90
26745;DHT22;14342;50.960;13.880;2023-03-12T03:26:02;2.20;99.90
26745;DHT22;14342;50.960;13.880;2023-03-12T03:27:05;2.40;99.90
26745;DHT22;14342;50.960;13.880;2023-03-12T03:28:05;2.50;99.90
26745;DHT22;14342;50.960;13.880;2023-03-12T03:29:07;2.60;99.90
26745;DHT22;14342;50.960;13.880;2023-03-12T03:30:08;2.70;99.90
26745;DHT22;14342;50.960;13.880;2023-03-12T03:31:11;2.70;99.90
26745;DHT22;14342;50.960;13.880;2023-03-12T03:32:12;3.00;99.90
26745;DHT22;14342;50.960;13.880;2023-03-12T03:33:13;2.80;99.90
26745;DHT22;14342;50.960;13.880;2023-03-12T03:34:14;2.90;99.90
26745;DHT22;14342;50.960;13.880;2023-03-12T03:35:15;3.00;99.90
26745;DHT22;14342;50.960;13.880;2023-03-12T03:36:17;3.10;99.90
26745;DHT22;14342;50.960;13.880;2023-03-12T03:37:18;3.00;99.90
26745;DHT22;14342;50.960;13.880;2023-03-12T03:38:19;3.00;99.90
26745;DHT22;14342;50.960;13.880;2023-03-12T03:39:20;3.10;99.90
26745;DHT22;14342;50.960;13.880;2023-03-12T03:40:21;3.20;99.90
26745;DHT22;14342;50.960;13.880;2023-03-12T03:41:22;3.20;99.90
26745;DHT22;14342;50.960;13.880;2023-03-12T03:42:25;3.20;99.90
26745;DHT22;14342;50.960;13.880;2023-03-12T03:43:25;3.20;99.90
26745;DHT22;14342;50.960;13.880;2023-03-12T03:44:27;3.30;99.90
26745;DHT22;14342;50.960;13.880;2023-03-12T03:45:27;3.10;99.90
26745;DHT22;14342;50.960;13.880;2023-03-12T03:46:29;3.10;99.90
26745;DHT22;14342;50.960;13.880;2023-03-12T03:47:29;3.00;99.90
26745;DHT22;14342;50.960;13.880;2023-03-12T03:48:31;3.00;99.90
26745;DHT22;14342;50.960;13.880;2023-03-12T03:49:32;2.90;99.90
26745;DHT22;14342;50.960;13.880;2023-03-12T03:50:33;2.90;99.90
26745;DHT22;14342;50.960;13.880;2023-03-12T03:51:35;2.80;99.90
26745;DHT22;14342;50.960;13.880;2023-03-12T03:52:36;2.90;99.90
26745;DHT22;14342;50.960;13.880;2023-03-12T03:53:37;2.90;99.90
26745;DHT22;14342;50.960;13.880;2023-03-12T03:54:38;3.00;99.90
26745;DHT22;14342;50.960;13.880;2023-03-12T03:55:39;2.90;99.90
26745;DHT22;14342;50.960;13.880;2023-03-12T03:56:40;2.90;99.90
26745;DHT22;14342;50.960;13.880;2023-03-12T03:57:42;2.90;99.90
26745;DHT22;14342;50.960;13.880;2023-03-12T03:58:44;2.60;99.90
26745;DHT22;14342;50.960;13.880;2023-03-12T03:59:45;2.40;99.90
26745;DHT22;14342;50.960;13.880;2023-03-12T04:00:46;2.30;99.90
26745;DHT22;14342;50.960;13.880;2023-03-12T04:01:47;2.10;99.90
26745;DHT22;14342;50.960;13.880;2023-03-12T04:02:48;2.10;99.90
26745;DHT22;14342;50.960;13.880;2023-03-12T04:03:49;2.10;99.90
26745;DHT22;14342;50.960;13.880;2023-03-12T04:04:50;2.10;99.90
26745;DHT22;14342;50.960;13.880;2023-03-12T04:05:52;1.80;99.90
26745;DHT22;14342;50.960;13.880;2023-03-12T04:06:54;1.70;99.90
26745;DHT22;14342;50.960;13.880;2023-03-12T04:07:54;1.60;99.90
26745;DHT22;14342;50.960;13.880;2023-03-12T04:08:56;1.70;99.90
26745;DHT22;14342;50.960;13.880;2023-03-12T04:09:57;2.10;99.90
26745;DHT22;14342;50.960;13.880;2023-03-12T04:10:58;1.70;99.90
26745;DHT22;14342;50.960;13.880;2023-03-12T04:11:59;1.70;99.90
26745;DHT22;14342;50.960;13.880;2023-03-12T04:13:01;1.60;99.90
26745;DHT22;14342;50.960;13.880;2023-03-12T04:14:02;1.70;99.90
26745;DHT22;14342;50.960;13.880;2023-03-12T04:15:04;1.60;99.90
26745;DHT22;14342;50.960;13.880;2023-03-12T04:16:05;1.60;99.90
26745;DHT22;14342;50.960;13.880;2023-03-12T04:17:06;1.50;99.90
26745;DHT22;14342;50.960;13.880;2023-03-12T04:18:07;1.70;99.90
26745;DHT22;14342;50.960;13.880;2023-03-12T04:19:09;1.90;99.90
26745;DHT22;14342;50.960;13.880;2023-03-12T04:20:10;2.00;99.90
26745;DHT22;14342;50.960;13.880;2023-03-12T04:21:12;2.10;99.90
26745;DHT22;14342;50.960;13.880;2023-03-12T04:22:12;2.30;99.90
26745;DHT22;14342;50.960;13.880;2023-03-12T04:23:14;2.30;99.90
26745;DHT22;14342;50.960;13.880;2023-03-12T04:24:15;2.10;99.90
26745;DHT22;14342;50.960;13.880;2023-03-12T04:25:17;2.20;99.90
26745;DHT22;14342;50.960;13.880;2023-03-12T04:26:18;2.30;99.90
26745;DHT22;14342;50.960;13.880;2023-03-12T04:27:20;2.40;99.90
26745;DHT22;14342;50.960;13.880;2023-03-12T04:28:21;2.50;99.90
26745;DHT22;14342;50.960;13.880;2023-03-12T04:29:23;2.50;99.90
26745;DHT22;14342;50.960;13.880;2023-03-12T04:30:23;2.50;99.90
26745;DHT22;14342;50.960;13.880;2023-03-12T04:31:25;2.60;99.90
26745;DHT22;14342;50.960;13.880;2023-03-12T04:32:26;2.60;99.90
26745;DHT22;14342;50.960;13.880;2023-03-12T04:33:27;2.60;99.90
26745;DHT22;14342;50.960;13.880;2023-03-12T04:34:28;2.60;99.90
26745;DHT22;14342;50.960;13.880;2023-03-12T04:35:30;2.90;99.90
26745;DHT22;14342;50.960;13.880;2023-03-12T04:36:30;2.60;99.90
26745;DHT22;14342;50.960;13.880;2023-03-12T04:37:32;2.70;99.90
26745;DHT22;14342;50.960;13.880;2023-03-12T04:38:34;2.70;99.90
26745;DHT22;14342;50.960;13.880;2023-03-12T04:39:34;2.70;99.90
26745;DHT22;14342;50.960;13.880;2023-03-12T04:40:36;2.70;99.90
26745;DHT22;14342;50.960;13.880;2023-03-12T04:41:36;2.40;99.90
26745;DHT22;14342;50.960;13.880;2023-03-12T04:42:38;2.50;99.90
26745;DHT22;14342;50.960;13.880;2023-03-12T04:43:40;2.60;99.90
26745;DHT22;14342;50.960;13.880;2023-03-12T04:44:42;2.60;99.90
26745;DHT22;14342;50.960;13.880;2023-03-12T04:45:42;2.70;99.90
26745;DHT22;14342;50.960;13.880;2023-03-12T04:46:44;2.70;99.90
26745;DHT22;14342;50.960;13.880;2023-03-12T04:47:44;2.60;99.90
26745;DHT22;14342;50.960;13.880;2023-03-12T04:48:46;2.50;99.90
26745;DHT22;14342;50.960;13.880;2023-03-12T04:49:46;2.60;99.90
26745;DHT22;14342;50.960;13.880;2023-03-12T04:50:48;2.60;99.90
26745;DHT22;14342;50.960;13.880;2023-03-12T04:51:49;2.60;99.90
26745;DHT22;14342;50.960;13.880;2023-03-12T04:52:50;2.70;99.90
26745;DHT22;14342;50.960;13.880;2023-03-12T04:53:51;2.80;99.90
26745;DHT22;14342;50.960;13.880;2023-03-12T04:54:53;2.80;99.90
26745;DHT22;14342;50.960;13.880;2023-03-12T04:55:53;2.90;99.90
26745;DHT22;14342;50.960;13.880;2023-03-12T04:56:55;3.10;99.90
26745;DHT22;14342;50.960;13.880;2023-03-12T04:57:55;2.90;99.90
26745;DHT22;14342;50.960;13.880;2023-03-12T04:58:58;3.00;99.90
26745;DHT22;14342;50.960;13.880;2023-03-12T04:59:59;3.00;99.90
26745;DHT22;14342;50.960;13.880;2023-03-12T05:01:00;3.00;99.90
26745;DHT22;14342;50.960;13.880;2023-03-12T05:02:01;3.00;99.90
26745;DHT22;14342;50.960;13.880;2023-03-12T05:03:02;2.90;99.90
26745;DHT22;14342;50.960;13.880;2023-03-12T05:04:03;2.90;99.90
26745;DHT22;14342;50.960;13.880;2023-03-12T05:05:05;2.90;99.90
26745;DHT22;14342;50.960;13.880;2023-03-12T05:06:06;2.90;99.90
26745;DHT22;14342;50.960;13.880;2023-03-12T05:07:07;3.00;99.90
26745;DHT22;14342;50.960;13.880;2023-03-12T05:08:08;2.80;99.90
26745;DHT22;14342;50.960;13.880;2023-03-12T05:09:09;2.90;99.90
26745;DHT22;14342;50.960;13.880;2023-03-12T05:10:10;2.80;99.90
26745;DHT22;14342;50.960;13.880;2023-03-12T05:11:12;2.80;99.90
26745;DHT22;14342;50.960;13.880;2023-03-12T05:12:13;2.80;99.90
26745;DHT22;14342;50.960;13.880;2023-03-12T05:13:15;2.70;99.90
26745;DHT22;14342;50.960;13.880;2023-03-12T05:14:17;2.60;99.90
26745;DHT22;14342;50.960;13.880;2023-03-12T05:15:18;2.30;99.90
26745;DHT22;14342;50.960;13.880;2023-03-12T05:16:19;2.30;99.90
26745;DHT22;14342;50.960;13.880;2023-03-12T05:17:20;2.20;99.90
26745;DHT22;14342;50.960;13.880;2023-03-12T05:18:21;2.10;99.90
26745;DHT22;14342;50.960;13.880;2023-03-12T05:19:23;2.20;99.90
26745;DHT22;14342;50.960;13.880;2023-03-12T05:20:23;2.40;99.90
26745;DHT22;14342;50.960;13.880;2023-03-12T05:21:24;2.50;99.90
26745;DHT22;14342;50.960;13.880;2023-03-12T05:22:25;2.60;99.90
26745;DHT22;14342;50.960;13.880;2023-03-12T05:23:27;2.70;99.90
26745;DHT22;14342;50.960;13.880;2023-03-12T05:24:27;2.70;99.90
26745;DHT22;14342;50.960;13.880;2023-03-12T05:25:29;2.70;99.90
26745;DHT22;14342;50.960;13.880;2023-03-12T05:26:30;2.80;99.90
26745;DHT22;14342;50.960;13.880;2023-03-12T05:27:32;2.80;99.90
26745;DHT22;14342;50.960;13.880;2023-03-12T05:28:32;2.90;99.90
26745;DHT22;14342;50.960;13.880;2023-03-12T05:29:35;2.90;99.90
26745;DHT22;14342;50.960;13.880;2023-03-12T05:30:37;2.90;99.90
26745;DHT22;14342;50.960;13.880;2023-03-12T05:31:38;2.90;99.90
26745;DHT22;14342;50.960;13.880;2023-03-12T05:32:40;2.90;99.90
26745;DHT22;14342;50.960;13.880;2023-03-12T05:33:40;2.90;99.90
26745;DHT22;14342;50.960;13.880;2023-03-12T05:34:42;2.60;99.90
26745;DHT22;14342;50.960;13.880;2023-03-12T05:35:42;2.50;99.90
26745;DHT22;14342;50.960;13.880;2023-03-12T05:36:44;2.50;99.90
26745;DHT22;14342;50.960;13.880;2023-03-12T05:37:44;2.70;99.90
26745;DHT22;14342;50.960;13.880;2023-03-12T05:38:46;2.60;99.90
26745;DHT22;14342;50.960;13.880;2023-03-12T05:39:46;2.70;99.90
26745;DHT22;14342;50.960;13.880;2023-03-12T05:40:51;2.70;99.90
26745;DHT22;14342;50.960;13.880;2023-03-12T05:41:52;2.60;99.90
26745;DHT22;14342;50.960;13.880;2023-03-12T05:42:56;2.60;99.90
26745;DHT22;14342;50.960;13.880;2023-03-12T05:43:57;2.30;99.90
26745;DHT22;14342;50.960;13.880;2023-03-12T05:45:00;2.20;99.90
26745;DHT22;14342;50.960;13.880;2023-03-12T05:46:01;2.20;99.90
26745;DHT22;14342;50.960;13.880;2023-03-12T05:47:03;2.20;99.90
26745;DHT22;14342;50.960;13.880;2023-03-12T05:48:03;2.30;99.90
26745;DHT22;14342;50.960;13.880;2023-03-12T05:49:05;2.30;99.90
26745;DHT22;14342;50.960;13.880;2023-03-12T05:50:06;2.40;99.90
26745;DHT22;14342;50.960;13.880;2023-03-12T05:51:08;2.50;99.90
26745;DHT22;14342;50.960;13.880;2023-03-12T05:52:09;2.60;99.90
26745;DHT22;14342;50.960;13.880;2023-03-12T05:53:10;2.50;99.90
26745;DHT22;14342;50.960;13.880;2023-03-12T05:54:11;2.40;99.90
26745;DHT22;14342;50.960;13.880;2023-03-12T05:55:13;2.50;99.90
26745;DHT22;14342;50.960;13.880;2023-03-12T05:56:14;2.50;99.90
26745;DHT22;14342;50.960;13.880;2023-03-12T05:57:16;2.00;99.90
26745;DHT22;14342;50.960;13.880;2023-03-12T05:58:16;1.90;99.90
26745;DHT22;14342;50.960;13.880;2023-03-12T05:59:18;1.80;99.90
26745;DHT22;14342;50.960;13.880;2023-03-12T06:00:20;1.70;99.90
26745;DHT22;14342;50.960;13.880;2023-03-12T06:01:23;1.60;99.90
26745;DHT22;14342;50.960;13.880;2023-03-12T06:02:24;1.50;99.90
26745;DHT22;14342;50.960;13.880;2023-03-12T06:03:25;1.50;99.90
26745;DHT22;14342;50.960;13.880;2023-03-12T06:04:26;1.30;99.90
26745;DHT22;14342;50.960;13.880;2023-03-12T06:05:29;1.10;99.90
26745;DHT22;14342;50.960;13.880;2023-03-12T06:06:29;1.00;99.90
26745;DHT22;14342;50.960;13.880;2023-03-12T06:07:31;1.00;99.90
26745;DHT22;14342;50.960;13.880;2023-03-12T06:08:32;1.10;99.90
26745;DHT22;14342;50.960;13.880;2023-03-12T06:09:34;1.20;99.90
26745;DHT22;14342;50.960;13.880;2023-03-12T06:10:36;1.30;99.90
26745;DHT22;14342;50.960;13.880;2023-03-12T06:11:38;1.50;99.90
26745;DHT22;14342;50.960;13.880;2023-03-12T06:12:38;1.70;99.90
26745;DHT22;14342;50.960;13.880;2023-03-12T06:13:40;1.80;99.90
26745;DHT22;14342;50.960;13.880;2023-03-12T06:14:41;2.00;99.90
26745;DHT22;14342;50.960;13.880;2023-03-12T06:15:44;2.10;99.90
26745;DHT22;14342;50.960;13.880;2023-03-12T06:16:44;2.10;99.90
26745;DHT22;14342;50.960;13.880;2023-03-12T06:17:46;2.20;99.90
26745;DHT22;14342;50.960;13.880;2023-03-12T06:18:47;2.30;99.90
26745;DHT22;14342;50.960;13.880;2023-03-12T06:19:49;2.30;99.90
26745;DHT22;14342;50.960;13.880;2023-03-12T06:20:50;2.00;99.90
26745;DHT22;14342;50.960;13.880;2023-03-12T06:21:51;2.00;99.90
26745;DHT22;14342;50.960;13.880;2023-03-12T06:22:52;2.30;99.90
26745;DHT22;14342;50.960;13.880;2023-03-12T06:23:53;2.30;99.90
26745;DHT22;14342;50.960;13.880;2023-03-12T06:24:54;2.40;99.90
26745;DHT22;14342;50.960;13.880;2023-03-12T06:25:55;2.40;99.90
26745;DHT22;14342;50.960;13.880;2023-03-12T06:26:56;2.50;99.90
26745;DHT22;14342;50.960;13.880;2023-03-12T06:27:57;2.40;99.90